Time;durP1;ratioP1;P1;durP2;ratioP2;P2;SDS_P1;SDS_P2;PMS_P1;PMS_P2;Temp;Humidity;BMP_temperature;BMP_pressure;BME280_temperature;BME280_humidity;BME280_pressure;Samples;Min_cycle;Max_cycle;Signal;HPM_P1;HPM_P2
2022/10/11 00:00:17;;;;;;;;;;;19.30;70.10;;;;;;4431095;32;20077;-83
2022/10/11 00:02:43;;;;;;;;;;;19.20;70.00;;;;;;4416802;32;20381;-82
2022/10/11 00:05:09;;;;;;;;;;;19.20;70.10;;;;;;4431190;32;19975;-82
2022/10/11 00:07:37;;;;;;;;;;;19.20;70.10;;;;;;4430955;32;19983;-82
2022/10/11 00:10:04;;;;;;;;;;;19.20;70.10;;;;;;4430673;32;20544;-82
2022/10/11 00:12:29;;;;;;;;;;;19.20;70.10;;;;;;4430899;32;19981;-82
2022/10/11 00:14:55;;;;;;;;;;;19.20;70.00;;;;;;4430220;32;19975;-83
2022/10/11 00:17:21;;;;;;;;;;;19.20;70.10;;;;;;4416489;32;20101;-82
2022/10/11 00:19:47;;;;;;;;;;;19.20;70.10;;;;;;4430691;32;20009;-82
2022/10/11 00:22:13;;;;;;;;;;;19.20;70.10;;;;;;4430764;32;20007;-82
2022/10/11 00:24:39;;;;;;;;;;;19.20;70.10;;;;;;4430799;32;19983;-82
2022/10/11 00:27:05;;;;;;;;;;;19.20;70.10;;;;;;4416604;32;19966;-82
2022/10/11 00:29:30;;;;;;;;;;;19.20;70.10;;;;;;4430716;32;20333;-82
2022/10/11 00:31:56;;;;;;;;;;;19.20;70.10;;;;;;4430421;32;20014;-82
2022/10/11 00:34:22;;;;;;;;;;;19.10;70.10;;;;;;4414048;32;20018;-82
2022/10/11 00:36:47;;;;;;;;;;;19.10;70.00;;;;;;4438220;32;19978;-82
2022/10/11 00:39:13;;;;;;;;;;;19.10;70.00;;;;;;4431316;32;19975;-82
2022/10/11 00:41:39;;;;;;;;;;;19.10;70.00;;;;;;4431208;32;20376;-83
2022/10/11 00:44:08;;;;;;;;;;;19.10;70.10;;;;;;4431079;32;20002;-82
2022/10/11 00:46:33;;;;;;;;;;;19.10;70.10;;;;;;4430603;32;19993;-82
2022/10/11 00:49:01;;;;;;;;;;;19.10;70.10;;;;;;4431275;32;19971;-82
2022/10/11 00:51:30;;;;;;;;;;;19.10;70.00;;;;;;4417453;32;19987;-82
2022/10/11 00:53:57;;;;;;;;;;;19.10;70.10;;;;;;4417356;32;19989;-82
2022/10/11 00:56:25;;;;;;;;;;;19.10;70.10;;;;;;4430945;32;20419;-82
2022/10/11 00:58:52;;;;;;;;;;;19.00;70.00;;;;;;4431061;32;19967;-82
2022/10/11 01:01:17;;;;;;;;;;;19.00;70.90;;;;;;4431033;32;20030;-82
2022/10/11 01:03:43;;;;;;;;;;;19.00;70.00;;;;;;4430738;32;20117;-82
2022/10/11 01:06:09;;;;;;;;;;;19.00;70.00;;;;;;4417149;32;19967;-82
2022/10/11 01:08:35;;;;;;;;;;;19.00;70.00;;;;;;4430609;32;20054;-82
2022/10/11 01:11:01;;;;;;;;;;;19.00;70.00;;;;;;4430789;32;20109;-82
2022/10/11 01:13:42;;;;;;;;;;;19.00;70.00;;;;;;4416823;32;19959;-82
2022/10/11 01:16:08;;;;;;;;;;;19.00;70.00;;;;;;4437676;32;19986;-82
2022/10/11 01:18:36;;;;;;;;;;;19.00;70.00;;;;;;4434060;32;19970;-82
2022/10/11 01:21:07;;;;;;;;;;;19.00;70.00;;;;;;4436087;32;19979;-82
2022/10/11 01:23:38;;;;;;;;;;;19.00;70.00;;;;;;4435926;32;20100;-82
2022/10/11 01:26:10;;;;;;;;;;;19.00;70.00;;;;;;4421707;32;20511;-82
2022/10/11 01:29:05;;;;;;;;;;;19.00;70.00;;;;;;4436101;32;20368;-82
2022/10/11 01:31:46;;;;;;;;;;;19.00;70.00;;;;;;4400279;32;20439;-82
2022/10/11 01:34:14;;;;;;;;;;;19.00;70.00;;;;;;4428834;32;20022;-82
2022/10/11 01:36:51;;;;;;;;;;;19.00;70.00;;;;;;4429963;32;20026;-82
2022/10/11 01:39:29;;;;;;;;;;;18.90;69.90;;;;;;4429971;32;19970;-82
2022/10/11 01:41:58;;;;;;;;;;;19.00;70.00;;;;;;4429577;32;19991;-82
2022/10/11 01:44:25;;;;;;;;;;;18.90;69.90;;;;;;4423459;32;20101;-82
2022/10/11 01:46:51;;;;;;;;;;;18.90;69.90;;;;;;4415723;32;20011;-82
2022/10/11 01:49:17;;;;;;;;;;;18.90;69.90;;;;;;4415747;32;19991;-82
2022/10/11 01:51:45;;;;;;;;;;;18.90;69.90;;;;;;4416075;32;20478;-82
2022/10/11 01:54:21;;;;;;;;;;;18.90;69.90;;;;;;4429714;32;20013;-82
2022/10/11 01:57:05;;;;;;;;;;;18.90;69.90;;;;;;4429716;32;19979;-82
2022/10/11 01:59:34;;;;;;;;;;;18.90;69.90;;;;;;4429837;32;19979;-82
2022/10/11 02:02:09;;;;;;;;;;;18.90;69.90;;;;;;4429594;32;20405;-82
2022/10/11 02:04:34;;;;;;;;;;;18.90;69.90;;;;;;4429570;32;19967;-82
2022/10/11 02:07:09;;;;;;;;;;;18.90;69.90;;;;;;4429690;32;19986;-82
2022/10/11 02:09:39;;;;;;;;;;;18.90;69.90;;;;;;4429685;32;20439;-82
2022/10/11 02:12:07;;;;;;;;;;;18.90;69.90;;;;;;4429678;32;20408;-82
2022/10/11 02:14:40;;;;;;;;;;;18.90;69.90;;;;;;4415759;32;20117;-82
2022/10/11 02:17:14;;;;;;;;;;;18.90;69.90;;;;;;4429133;32;19986;-82
2022/10/11 02:19:43;;;;;;;;;;;18.80;69.80;;;;;;4415810;32;20065;-81
2022/10/11 02:22:12;;;;;;;;;;;18.80;69.80;;;;;;4415485;32;19990;-82
2022/10/11 02:24:40;;;;;;;;;;;18.80;69.80;;;;;;4415795;32;19985;-82
2022/10/11 02:27:06;;;;;;;;;;;18.80;69.90;;;;;;4429465;32;19979;-82
2022/10/11 02:29:33;;;;;;;;;;;18.80;69.90;;;;;;4429581;32;20435;-82
2022/10/11 02:31:59;;;;;;;;;;;18.80;69.90;;;;;;4415429;32;19974;-83
2022/10/11 02:34:28;;;;;;;;;;;18.80;69.90;;;;;;4429617;32;20034;-83
2022/10/11 02:36:58;;;;;;;;;;;18.80;69.80;;;;;;4429347;32;20335;-82
2022/10/11 02:39:37;;;;;;;;;;;18.80;69.80;;;;;;4412479;32;20045;-82
2022/10/11 02:42:05;;;;;;;;;;;18.80;69.90;;;;;;4432188;32;20141;-82
2022/10/11 02:44:36;;;;;;;;;;;18.80;69.90;;;;;;4432125;32;20108;-82
2022/10/11 02:47:02;;;;;;;;;;;18.80;69.80;;;;;;4431897;32;19979;-83
2022/10/11 02:49:28;;;;;;;;;;;18.70;69.80;;;;;;4431863;32;19971;-83
2022/10/11 02:51:55;;;;;;;;;;;18.80;69.80;;;;;;4432275;32;20389;-83
2022/10/11 02:54:22;;;;;;;;;;;18.70;69.70;;;;;;4431767;32;20413;-82
2022/10/11 02:56:47;;;;;;;;;;;18.70;69.70;;;;;;4432158;32;20065;-83
2022/10/11 02:59:13;;;;;;;;;;;18.80;69.80;;;;;;4432003;32;20481;-82
2022/10/11 03:01:39;;;;;;;;;;;18.70;69.70;;;;;;4431750;32;20045;-82
2022/10/11 03:04:05;;;;;;;;;;;18.70;69.80;;;;;;4418248;32;19978;-82
2022/10/11 03:06:30;;;;;;;;;;;18.70;69.70;;;;;;4431774;32;19981;-82
2022/10/11 03:08:56;;;;;;;;;;;18.70;69.70;;;;;;4431877;32;20018;-82
2022/10/11 03:11:22;;;;;;;;;;;18.70;69.70;;;;;;4431493;32;20374;-82
2022/10/11 03:13:47;;;;;;;;;;;18.70;69.70;;;;;;4431912;32;20169;-82
2022/10/11 03:16:13;;;;;;;;;;;18.70;69.70;;;;;;4431821;32;20506;-82
2022/10/11 03:18:39;;;;;;;;;;;18.70;69.70;;;;;;4431248;32;20391;-83
2022/10/11 03:21:05;;;;;;;;;;;18.60;69.60;;;;;;4431644;32;20413;-83
2022/10/11 03:23:31;;;;;;;;;;;18.70;69.70;;;;;;4431527;32;20014;-83
2022/10/11 03:25:56;;;;;;;;;;;18.70;69.70;;;;;;4431848;32;20390;-82
2022/10/11 03:28:22;;;;;;;;;;;18.70;69.70;;;;;;4431589;32;20007;-84
2022/10/11 03:30:48;;;;;;;;;;;18.70;69.70;;;;;;4417999;32;19974;-83
2022/10/11 03:33:14;;;;;;;;;;;18.60;69.70;;;;;;4431559;32;19999;-82
2022/10/11 03:35:42;;;;;;;;;;;18.70;69.70;;;;;;4431314;32;20278;-82
2022/10/11 03:38:10;;;;;;;;;;;18.60;69.70;;;;;;4431397;32;20065;-82
2022/10/11 03:40:36;;;;;;;;;;;18.60;69.70;;;;;;4431132;32;20042;-82
2022/10/11 03:43:02;;;;;;;;;;;18.60;69.70;;;;;;4431405;32;20038;-83
2022/10/11 03:45:27;;;;;;;;;;;18.60;69.70;;;;;;4431213;32;19994;-81
2022/10/11 03:47:53;;;;;;;;;;;18.60;69.60;;;;;;4431308;32;20132;-82
2022/10/11 03:50:19;;;;;;;;;;;18.60;69.60;;;;;;4430452;32;19963;-82
2022/10/11 03:52:44;;;;;;;;;;;18.60;69.60;;;;;;4431058;32;20392;-82
2022/10/11 03:55:11;;;;;;;;;;;18.60;69.60;;;;;;4431113;32;19990;-82
2022/10/11 03:57:37;;;;;;;;;;;18.60;69.60;;;;;;4431240;32;19971;-82
2022/10/11 04:00:04;;;;;;;;;;;18.60;69.60;;;;;;4431119;32;20002;-82
2022/10/11 04:02:35;;;;;;;;;;;18.60;69.60;;;;;;4431274;32;20002;-82
2022/10/11 04:05:01;;;;;;;;;;;18.60;69.60;;;;;;4430790;32;20405;-82
2022/10/11 04:07:27;;;;;;;;;;;18.60;69.50;;;;;;4431045;32;19979;-82
2022/10/11 04:09:53;;;;;;;;;;;18.50;69.50;;;;;;4430794;32;19999;-82
2022/10/11 04:12:18;;;;;;;;;;;18.50;69.50;;;;;;4430837;32;20010;-82
2022/10/11 04:14:44;;;;;;;;;;;18.50;69.50;;;;;;4430827;32;20400;-82
2022/10/11 04:17:10;;;;;;;;;;;18.50;69.50;;;;;;4430305;32;20420;-82
2022/10/11 04:19:36;;;;;;;;;;;18.50;69.50;;;;;;4417054;32;19982;-82
2022/10/11 04:22:02;;;;;;;;;;;18.50;69.50;;;;;;4430616;32;19971;-82
2022/10/11 04:24:28;;;;;;;;;;;18.50;69.50;;;;;;4430702;32;20359;-82
2022/10/11 04:26:54;;;;;;;;;;;18.50;69.50;;;;;;4430583;32;19971;-82
2022/10/11 04:29:20;;;;;;;;;;;18.50;69.50;;;;;;4430979;32;20003;-82
2022/10/11 04:31:45;;;;;;;;;;;18.50;69.50;;;;;;4430636;32;20022;-82
2022/10/11 04:34:11;;;;;;;;;;;18.50;69.50;;;;;;4420134;32;19981;-83
2022/10/11 04:36:37;;;;;;;;;;;18.50;69.50;;;;;;4430727;32;20429;-82
2022/10/11 04:39:04;;;;;;;;;;;18.50;69.50;;;;;;4430521;32;20458;-82
2022/10/11 04:41:30;;;;;;;;;;;18.50;69.50;;;;;;4430501;32;19979;-82
2022/10/11 04:43:56;;;;;;;;;;;18.50;69.50;;;;;;4432112;32;20298;-82
2022/10/11 04:46:22;;;;;;;;;;;18.50;69.50;;;;;;4439829;32;20421;-82
2022/10/11 04:48:48;;;;;;;;;;;18.40;69.40;;;;;;4430112;32;19981;-83
2022/10/11 04:51:13;;;;;;;;;;;18.40;69.40;;;;;;4430610;32;20003;-82
2022/10/11 04:53:39;;;;;;;;;;;18.40;69.40;;;;;;4413709;32;19994;-82
2022/10/11 04:56:09;;;;;;;;;;;18.40;69.40;;;;;;4426150;32;20310;-83
2022/10/11 04:58:35;;;;;;;;;;;18.40;69.40;;;;;;4430555;32;20084;-83
2022/10/11 05:01:01;;;;;;;;;;;18.40;69.40;;;;;;4430013;32;19979;-83
2022/10/11 05:03:27;;;;;;;;;;;18.40;69.40;;;;;;4430165;32;20056;-83
2022/10/11 05:05:53;;;;;;;;;;;18.40;69.30;;;;;;4430382;32;20019;-83
2022/10/11 05:08:19;;;;;;;;;;;18.40;69.40;;;;;;4430153;32;20404;-83
2022/10/11 05:11:04;;;;;;;;;;;18.40;69.30;;;;;;4430059;32;19975;-82
2022/10/11 05:13:30;;;;;;;;;;;18.40;69.30;;;;;;4427189;32;20010;-83
2022/10/11 05:15:56;;;;;;;;;;;18.40;69.30;;;;;;4430221;32;20392;-83
2022/10/11 05:18:22;;;;;;;;;;;18.30;69.30;;;;;;4429773;32;19959;-82
2022/10/11 05:20:48;;;;;;;;;;;18.40;69.30;;;;;;4429949;32;20027;-81
2022/10/11 05:23:14;;;;;;;;;;;18.40;69.40;;;;;;4430161;32;19990;-81
2022/10/11 05:25:40;;;;;;;;;;;18.30;69.00;;;;;;4429929;32;19971;-81
2022/10/11 05:28:06;;;;;;;;;;;18.30;68.90;;;;;;4430049;32;20445;-81
2022/10/11 05:30:31;;;;;;;;;;;18.30;69.00;;;;;;4429756;32;20092;-79
2022/10/11 05:32:57;;;;;;;;;;;18.30;69.00;;;;;;4430102;32;19971;-82
2022/10/11 05:35:23;;;;;;;;;;;18.30;69.10;;;;;;4429917;32;20088;-80
2022/10/11 05:37:48;;;;;;;;;;;18.30;69.20;;;;;;4430025;32;19977;-81
2022/10/11 05:40:14;;;;;;;;;;;18.30;69.20;;;;;;4429868;32;20046;-81
2022/10/11 05:42:40;;;;;;;;;;;18.30;69.20;;;;;;4429822;32;19971;-80
2022/10/11 05:45:06;;;;;;;;;;;18.30;69.40;;;;;;4429943;32;20381;-82
2022/10/11 05:47:32;;;;;;;;;;;18.30;69.30;;;;;;4412956;32;20015;-81
2022/10/11 05:49:57;;;;;;;;;;;18.30;69.30;;;;;;4422302;32;20386;-81
2022/10/11 05:52:23;;;;;;;;;;;18.30;69.30;;;;;;4429803;32;20021;-82
2022/10/11 05:54:49;;;;;;;;;;;18.30;69.40;;;;;;4429827;32;20133;-79
2022/10/11 05:57:16;;;;;;;;;;;18.30;69.30;;;;;;4429927;32;20104;-80
2022/10/11 05:59:41;;;;;;;;;;;18.30;69.40;;;;;;4429586;32;19963;-81
2022/10/11 06:02:11;;;;;;;;;;;18.30;69.30;;;;;;4429754;32;20072;-82
2022/10/11 06:04:37;;;;;;;;;;;18.30;69.30;;;;;;4429661;32;19986;-81
2022/10/11 06:07:03;;;;;;;;;;;18.30;69.30;;;;;;4429918;32;20306;-83
2022/10/11 06:09:29;;;;;;;;;;;18.30;69.40;;;;;;4429972;32;20050;-80
2022/10/11 06:11:55;;;;;;;;;;;18.30;69.40;;;;;;4429433;32;19967;-81
2022/10/11 06:14:20;;;;;;;;;;;18.20;69.30;;;;;;4432884;32;20386;-82
2022/10/11 06:16:46;;;;;;;;;;;18.30;69.40;;;;;;4432660;32;19970;-80
2022/10/11 06:19:12;;;;;;;;;;;18.20;69.40;;;;;;4432465;32;19982;-79
2022/10/11 06:21:38;;;;;;;;;;;18.20;69.40;;;;;;4418492;32;19967;-77
2022/10/11 06:24:04;;;;;;;;;;;18.20;69.50;;;;;;4432887;32;20003;-78
2022/10/11 06:26:30;;;;;;;;;;;18.20;69.60;;;;;;4432534;32;20495;-76
2022/10/11 06:28:55;;;;;;;;;;;18.20;69.70;;;;;;4432274;32;19978;-76
2022/10/11 06:31:21;;;;;;;;;;;18.20;69.80;;;;;;4432735;32;19978;-76
2022/10/11 06:33:47;;;;;;;;;;;18.20;69.80;;;;;;4432383;32;20513;-75
2022/10/11 06:36:13;;;;;;;;;;;18.20;69.80;;;;;;4432400;32;20093;-79
2022/10/11 06:38:39;;;;;;;;;;;18.20;69.80;;;;;;4432266;32;19983;-75
2022/10/11 06:41:12;;;;;;;;;;;18.20;69.90;;;;;;4432350;32;20026;-76
2022/10/11 06:43:38;;;;;;;;;;;18.20;70.80;;;;;;4418241;32;20388;-74
2022/10/11 06:46:04;;;;;;;;;;;18.20;70.10;;;;;;4432046;32;20564;-76
2022/10/11 06:48:30;;;;;;;;;;;18.20;70.10;;;;;;4431868;32;20013;-75
2022/10/11 06:50:59;;;;;;;;;;;18.20;70.10;;;;;;4416368;32;20805;-75
2022/10/11 06:53:24;;;;;;;;;;;18.30;70.30;;;;;;4431081;32;20659;-69
2022/10/11 06:55:50;;;;;;;;;;;18.30;69.80;;;;;;4431641;32;19981;-78
2022/10/11 06:58:17;;;;;;;;;;;18.30;69.50;;;;;;4431078;32;20002;-77
2022/10/11 07:00:42;;;;;;;;;;;18.50;69.70;;;;;;4431547;32;19982;-78
2022/10/11 07:03:08;;;;;;;;;;;18.60;69.60;;;;;;4431377;32;19986;-80
2022/10/11 07:05:34;;;;;;;;;;;18.70;69.50;;;;;;4431591;32;20092;-80
2022/10/11 07:08:00;;;;;;;;;;;18.90;68.90;;;;;;4431177;32;19967;-80
2022/10/11 07:10:26;;;;;;;;;;;18.90;69.00;;;;;;4431080;32;19985;-77
2022/10/11 07:12:52;;;;;;;;;;;18.80;68.80;;;;;;4431575;32;19971;-77
2022/10/11 07:15:17;;;;;;;;;;;18.80;69.00;;;;;;4431235;32;19995;-77
2022/10/11 07:17:43;;;;;;;;;;;18.80;68.80;;;;;;4431285;32;20027;-79
2022/10/11 07:20:09;;;;;;;;;;;18.70;68.80;;;;;;4430996;32;19959;-79
2022/10/11 07:22:35;;;;;;;;;;;18.70;69.10;;;;;;4417421;32;20002;-78
2022/10/11 07:25:00;;;;;;;;;;;18.60;69.00;;;;;;4431012;32;19975;-77
2022/10/11 07:27:26;;;;;;;;;;;18.60;69.00;;;;;;4431314;32;19971;-78
2022/10/11 07:29:52;;;;;;;;;;;18.50;69.10;;;;;;4431011;32;20317;-77
2022/10/11 07:32:18;;;;;;;;;;;18.60;69.20;;;;;;4430991;32;19978;-78
2022/10/11 07:34:44;;;;;;;;;;;18.50;69.20;;;;;;4431246;32;20141;-77
2022/10/11 07:37:09;;;;;;;;;;;18.50;69.30;;;;;;4430944;32;19982;-78
2022/10/11 07:39:35;;;;;;;;;;;18.40;69.40;;;;;;4430838;32;20230;-76
2022/10/11 07:42:01;;;;;;;;;;;18.50;69.70;;;;;;4430919;32;19975;-78
2022/10/11 07:44:27;;;;;;;;;;;18.50;69.90;;;;;;4417055;32;20317;-73
2022/10/11 07:46:54;;;;;;;;;;;18.40;69.90;;;;;;4430806;32;19982;-78
2022/10/11 07:49:20;;;;;;;;;;;18.40;70.00;;;;;;4430141;32;19971;-80
2022/10/11 07:51:46;;;;;;;;;;;18.40;70.00;;;;;;4418189;32;20023;-78
2022/10/11 07:54:12;;;;;;;;;;;18.40;70.10;;;;;;4430743;32;20029;-78
2022/10/11 07:56:39;;;;;;;;;;;18.40;70.20;;;;;;4404196;32;19977;-79
2022/10/11 07:59:06;;;;;;;;;;;18.40;70.10;;;;;;4430418;32;19970;-78
2022/10/11 08:01:32;;;;;;;;;;;18.40;70.20;;;;;;4430555;32;19986;-77
2022/10/11 08:03:58;;;;;;;;;;;18.40;70.10;;;;;;4430604;32;19978;-77
2022/10/11 08:06:28;;;;;;;;;;;18.40;70.00;;;;;;4430556;32;20070;-77
2022/10/11 08:08:53;;;;;;;;;;;18.40;70.00;;;;;;4430353;32;19978;-76
2022/10/11 08:11:27;;;;;;;;;;;18.40;70.00;;;;;;4430308;32;20012;-78
2022/10/11 08:13:53;;;;;;;;;;;18.40;70.00;;;;;;4431012;32;20105;-77
2022/10/11 08:16:20;;;;;;;;;;;18.40;70.00;;;;;;4430402;32;20054;-76
2022/10/11 08:18:46;;;;;;;;;;;18.40;70.20;;;;;;4429746;32;20519;-76
2022/10/11 08:21:13;;;;;;;;;;;18.40;70.00;;;;;;4430301;32;20563;-76
2022/10/11 08:23:39;;;;;;;;;;;18.40;69.80;;;;;;4430149;32;20384;-74
2022/10/11 08:26:05;;;;;;;;;;;18.50;70.00;;;;;;4430312;32;20389;-74
2022/10/11 08:28:31;;;;;;;;;;;18.50;69.70;;;;;;4430279;32;19991;-76
2022/10/11 08:30:57;;;;;;;;;;;18.50;69.70;;;;;;4430403;32;20409;-76
2022/10/11 08:33:24;;;;;;;;;;;18.50;69.60;;;;;;4423773;32;19986;-74
2022/10/11 08:35:51;;;;;;;;;;;18.50;69.50;;;;;;4415803;32;20022;-73
2022/10/11 08:38:17;;;;;;;;;;;18.50;69.50;;;;;;4429765;32;20068;-75
2022/10/11 08:40:54;;;;;;;;;;;18.50;69.30;;;;;;4430021;32;19991;-76
2022/10/11 08:43:28;;;;;;;;;;;18.60;69.40;;;;;;4430162;32;19975;-75
2022/10/11 08:45:56;;;;;;;;;;;18.60;69.50;;;;;;4434981;32;20037;-73
2022/10/11 08:48:40;;;;;;;;;;;18.60;69.50;;;;;;4429146;32;19991;-74
2022/10/11 08:51:22;;;;;;;;;;;18.60;69.50;;;;;;4428228;32;19994;-75
2022/10/11 08:53:52;;;;;;;;;;;18.60;69.50;;;;;;4425700;32;19975;-75
2022/10/11 08:56:19;;;;;;;;;;;18.60;69.50;;;;;;4432540;32;19975;-75
2022/10/11 08:58:54;;;;;;;;;;;18.60;69.40;;;;;;4429847;32;20101;-74
2022/10/11 09:01:22;;;;;;;;;;;18.60;69.40;;;;;;4429446;32;20001;-74
2022/10/11 09:03:49;;;;;;;;;;;18.60;69.50;;;;;;4429947;32;19971;-75
2022/10/11 09:06:15;;;;;;;;;;;18.60;69.30;;;;;;4429639;32;20385;-77
2022/10/11 09:08:46;;;;;;;;;;;18.60;69.10;;;;;;4404607;32;20056;-76
2022/10/11 09:11:12;;;;;;;;;;;18.70;69.20;;;;;;4429762;32;20001;-76
2022/10/11 09:13:41;;;;;;;;;;;18.60;68.90;;;;;;4429837;32;19982;-76
2022/10/11 09:16:09;;;;;;;;;;;18.70;68.70;;;;;;4430079;32;19974;-76
2022/10/11 09:18:41;;;;;;;;;;;18.70;68.50;;;;;;4429519;32;20018;-76
2022/10/11 09:21:07;;;;;;;;;;;18.70;68.60;;;;;;4416054;32;19990;-80
2022/10/11 09:23:33;;;;;;;;;;;18.70;68.50;;;;;;4429896;32;20034;-74
2022/10/11 09:26:04;;;;;;;;;;;18.70;68.50;;;;;;4416289;32;19987;-77
2022/10/11 09:28:33;;;;;;;;;;;18.70;68.60;;;;;;4429640;32;20026;-79
2022/10/11 09:30:59;;;;;;;;;;;18.60;68.60;;;;;;4429853;32;20042;-79
2022/10/11 09:33:37;;;;;;;;;;;18.70;68.70;;;;;;4416032;32;20444;-79
2022/10/11 09:36:12;;;;;;;;;;;18.70;68.80;;;;;;4426431;32;19970;-80
2022/10/11 09:39:07;;;;;;;;;;;18.70;68.60;;;;;;4425807;32;20037;-79
2022/10/11 09:41:37;;;;;;;;;;;18.70;68.80;;;;;;4399303;32;20037;-77
2022/10/11 09:44:05;;;;;;;;;;;18.70;68.80;;;;;;4415710;32;19990;-77
2022/10/11 09:46:39;;;;;;;;;;;18.70;68.90;;;;;;4445931;32;20037;-76
2022/10/11 09:49:10;;;;;;;;;;;18.70;68.80;;;;;;4423496;32;20053;-77
2022/10/11 09:51:36;;;;;;;;;;;18.70;68.80;;;;;;4425093;32;20014;-79
2022/10/11 09:54:04;;;;;;;;;;;18.70;68.80;;;;;;4432759;32;20042;-77
2022/10/11 09:56:31;;;;;;;;;;;18.70;69.10;;;;;;4432317;32;19993;-77
2022/10/11 09:59:15;;;;;;;;;;;18.80;69.00;;;;;;4432629;32;19994;-78
2022/10/11 10:01:43;;;;;;;;;;;18.80;68.80;;;;;;4432466;32;20013;-78
2022/10/11 10:04:13;;;;;;;;;;;18.80;68.80;;;;;;4432678;32;19975;-76
2022/10/11 10:06:39;;;;;;;;;;;18.70;68.80;;;;;;4432351;32;19989;-78
2022/10/11 10:09:23;;;;;;;;;;;18.80;68.90;;;;;;4430857;32;19978;-76
2022/10/11 10:11:49;;;;;;;;;;;18.80;68.90;;;;;;4429992;32;19971;-75
2022/10/11 10:14:26;;;;;;;;;;;18.80;69.00;;;;;;4418288;32;19982;-76
2022/10/11 10:16:59;;;;;;;;;;;18.90;69.10;;;;;;4431468;32;20115;-75
2022/10/11 10:19:25;;;;;;;;;;;18.80;69.00;;;;;;4417222;32;20010;-76
2022/10/11 10:21:52;;;;;;;;;;;18.80;69.00;;;;;;4431435;32;19977;-77
2022/10/11 10:24:21;;;;;;;;;;;18.80;69.10;;;;;;4432019;32;20230;-77
2022/10/11 10:27:05;;;;;;;;;;;18.80;69.00;;;;;;4431759;32;19990;-77
2022/10/11 10:29:31;;;;;;;;;;;18.80;68.90;;;;;;4431890;32;19986;-77
2022/10/11 10:31:57;;;;;;;;;;;18.80;68.90;;;;;;4431487;32;19991;-78
2022/10/11 10:34:25;;;;;;;;;;;18.80;68.90;;;;;;4431782;32;19981;-77
2022/10/11 10:36:57;;;;;;;;;;;18.80;69.20;;;;;;4431715;32;19971;-77
2022/10/11 10:39:26;;;;;;;;;;;18.80;69.10;;;;;;4431627;32;19990;-77
2022/10/11 10:41:51;;;;;;;;;;;18.70;69.10;;;;;;4431248;32;20112;-78
2022/10/11 10:44:18;;;;;;;;;;;18.80;69.20;;;;;;4417827;32;20396;-78
2022/10/11 10:46:46;;;;;;;;;;;18.80;69.20;;;;;;4431851;32;19983;-78
2022/10/11 10:49:31;;;;;;;;;;;18.80;69.30;;;;;;4429471;32;19982;-77
2022/10/11 10:52:04;;;;;;;;;;;18.80;69.40;;;;;;4431259;32;20007;-77
2022/10/11 10:54:33;;;;;;;;;;;18.80;69.30;;;;;;4431530;32;19978;-77
2022/10/11 10:57:09;;;;;;;;;;;18.80;69.40;;;;;;4417748;32;19975;-76
2022/10/11 10:59:53;;;;;;;;;;;18.80;69.40;;;;;;4430985;32;20380;-77
2022/10/11 11:02:20;;;;;;;;;;;18.80;69.30;;;;;;4431773;32;19982;-78
2022/10/11 11:04:55;;;;;;;;;;;18.80;69.40;;;;;;4431395;32;19982;-76
2022/10/11 11:07:25;;;;;;;;;;;18.80;69.20;;;;;;4431382;32;20097;-76
2022/10/11 11:09:57;;;;;;;;;;;18.80;69.30;;;;;;4430885;32;20405;-77
2022/10/11 11:12:29;;;;;;;;;;;18.80;69.10;;;;;;4431175;32;19989;-77
2022/10/11 11:15:08;;;;;;;;;;;18.80;69.10;;;;;;4431441;32;20449;-78
2022/10/11 11:17:48;;;;;;;;;;;18.80;69.10;;;;;;4417336;32;20007;-77
2022/10/11 11:20:21;;;;;;;;;;;18.80;69.20;;;;;;4441860;32;20019;-77
2022/10/11 11:22:46;;;;;;;;;;;18.80;69.20;;;;;;4417409;32;20037;-77
2022/10/11 11:25:12;;;;;;;;;;;18.80;69.20;;;;;;4431170;32;19986;-77
2022/10/11 11:28:10;;;;;;;;;;;18.80;69.10;;;;;;4430147;32;20003;-78
2022/10/11 11:30:54;;;;;;;;;;;18.80;69.00;;;;;;4410255;32;20014;-77
2022/10/11 11:33:29;;;;;;;;;;;18.80;69.10;;;;;;4431458;32;20381;-78
2022/10/11 11:35:57;;;;;;;;;;;18.80;68.90;;;;;;4418004;32;20008;-78
2022/10/11 11:38:28;;;;;;;;;;;18.80;69.00;;;;;;4431661;32;20459;-78
2022/10/11 11:40:55;;;;;;;;;;;18.80;69.60;;;;;;4417480;32;20483;-76
2022/10/11 11:43:31;;;;;;;;;;;18.80;68.90;;;;;;4431556;32;19985;-77
2022/10/11 11:46:00;;;;;;;;;;;18.80;68.90;;;;;;4431206;32;19971;-77
2022/10/11 11:48:25;;;;;;;;;;;18.90;68.90;;;;;;4430886;32;19970;-78
2022/10/11 11:50:57;;;;;;;;;;;18.80;68.60;;;;;;4431197;32;19981;-78
2022/10/11 11:53:29;;;;;;;;;;;18.80;68.50;;;;;;4431060;32;19975;-78
2022/10/11 11:56:01;;;;;;;;;;;18.80;68.40;;;;;;4431437;32;20439;-76
2022/10/11 11:58:29;;;;;;;;;;;18.80;68.10;;;;;;4430872;32;20090;-78
2022/10/11 12:00:55;;;;;;;;;;;18.80;68.10;;;;;;4425903;32;19990;-79
2022/10/11 12:03:25;;;;;;;;;;;18.80;67.70;;;;;;4430710;32;20118;-79
2022/10/11 12:06:09;;;;;;;;;;;18.80;67.50;;;;;;4430175;32;20096;-79
2022/10/11 12:08:36;;;;;;;;;;;18.80;67.60;;;;;;4430560;32;20069;-78
2022/10/11 12:11:03;;;;;;;;;;;18.80;67.60;;;;;;4429751;32;19991;-79
2022/10/11 12:13:38;;;;;;;;;;;18.80;67.40;;;;;;4430381;32;20113;-78
2022/10/11 12:16:11;;;;;;;;;;;18.80;67.50;;;;;;4430386;32;20555;-79
2022/10/11 12:18:55;;;;;;;;;;;18.80;67.50;;;;;;4430040;32;19983;-79
2022/10/11 12:21:20;;;;;;;;;;;18.80;67.50;;;;;;4430294;32;19990;-78
2022/10/11 12:23:47;;;;;;;;;;;18.80;67.30;;;;;;4430102;32;19974;-77
2022/10/11 12:26:14;;;;;;;;;;;18.80;67.30;;;;;;4430071;32;19983;-78
2022/10/11 12:28:39;;;;;;;;;;;18.80;67.10;;;;;;4430327;32;20002;-78
2022/10/11 12:31:15;;;;;;;;;;;18.80;67.20;;;;;;4419733;32;19991;-79
2022/10/11 12:33:41;;;;;;;;;;;18.80;67.10;;;;;;4416374;32;19986;-78
2022/10/11 12:36:31;;;;;;;;;;;18.80;66.90;;;;;;4429765;32;19974;-79
2022/10/11 12:39:15;;;;;;;;;;;18.80;67.10;;;;;;4430129;32;20049;-83
2022/10/11 12:41:49;;;;;;;;;;;18.80;66.80;;;;;;4429882;32;20126;-76
2022/10/11 12:44:17;;;;;;;;;;;18.80;66.70;;;;;;4429888;32;20064;-74
2022/10/11 12:46:49;;;;;;;;;;;18.80;67.30;;;;;;4429794;32;20061;-79
2022/10/11 12:49:15;;;;;;;;;;;18.80;67.00;;;;;;4429474;32;20172;-79
2022/10/11 12:51:43;;;;;;;;;;;18.80;66.80;;;;;;4429855;32;19970;-79
2022/10/11 12:54:15;;;;;;;;;;;18.80;66.80;;;;;;4415971;32;20503;-79
2022/10/11 12:56:59;;;;;;;;;;;18.80;67.00;;;;;;4415599;32;19983;-79
2022/10/11 12:59:25;;;;;;;;;;;18.80;66.90;;;;;;4429962;32;20062;-78
2022/10/11 13:01:52;;;;;;;;;;;18.80;67.00;;;;;;4429536;32;19962;-79
2022/10/11 13:04:25;;;;;;;;;;;18.80;67.10;;;;;;4429778;32;20070;-79
2022/10/11 13:06:55;;;;;;;;;;;18.80;67.10;;;;;;4429433;32;20437;-79
2022/10/11 13:09:29;;;;;;;;;;;18.90;67.30;;;;;;4417373;32;26394;-77
2022/10/11 13:11:54;;;;;;;;;;;18.80;67.40;;;;;;4428748;32;20105;-77
2022/10/11 13:14:22;;;;;;;;;;;18.90;67.50;;;;;;4428062;32;20348;-77
2022/10/11 13:16:51;;;;;;;;;;;18.90;67.50;;;;;;4429754;32;20070;-76
2022/10/11 13:19:20;;;;;;;;;;;18.90;67.50;;;;;;4415904;32;20332;-79
2022/10/11 13:21:50;;;;;;;;;;;18.90;67.50;;;;;;4429429;32;20056;-79
2022/10/11 13:24:16;;;;;;;;;;;18.90;67.50;;;;;;4429374;32;19989;-78
2022/10/11 13:26:44;;;;;;;;;;;18.90;67.60;;;;;;4428890;32;20049;-78
2022/10/11 13:29:17;;;;;;;;;;;18.90;67.60;;;;;;4429230;32;19989;-78
2022/10/11 13:31:46;;;;;;;;;;;18.90;67.60;;;;;;4413468;32;19983;-79
2022/10/11 13:34:18;;;;;;;;;;;18.90;67.50;;;;;;4427962;32;19971;-80
2022/10/11 13:36:44;;;;;;;;;;;18.90;67.60;;;;;;4428172;32;19990;-80
2022/10/11 13:39:24;;;;;;;;;;;18.90;67.60;;;;;;4428876;32;19971;-80
2022/10/11 13:41:50;;;;;;;;;;;18.90;67.60;;;;;;4428766;32;20018;-81
2022/10/11 13:44:16;;;;;;;;;;;18.90;67.60;;;;;;4428865;32;19979;-81
2022/10/11 13:46:42;;;;;;;;;;;18.90;67.60;;;;;;4427392;32;19979;-80
2022/10/11 13:49:23;;;;;;;;;;;19.00;67.70;;;;;;4427209;32;19974;-80
2022/10/11 13:51:59;;;;;;;;;;;18.90;67.60;;;;;;4428812;32;20070;-79
2022/10/11 13:54:47;;;;;;;;;;;18.90;67.50;;;;;;4429045;32;20031;-80
2022/10/11 13:57:13;;;;;;;;;;;19.00;67.50;;;;;;4429487;32;19989;-78
2022/10/11 13:59:41;;;;;;;;;;;19.00;67.50;;;;;;4428898;32;19990;-80
2022/10/11 14:02:15;;;;;;;;;;;18.90;67.20;;;;;;4424217;32;20001;-80
2022/10/11 14:04:41;;;;;;;;;;;19.00;67.20;;;;;;4429075;32;19994;-79
2022/10/11 14:07:21;;;;;;;;;;;18.90;67.30;;;;;;4429244;32;20181;-84
2022/10/11 14:09:47;;;;;;;;;;;18.90;67.30;;;;;;4412477;32;29171;-82
2022/10/11 14:12:51;;;;;;;;;;;18.90;67.30;;;;;;4428885;32;20003;-80
2022/10/11 14:15:34;;;;;;;;;;;18.90;67.40;;;;;;4392125;32;20334;-81
2022/10/11 14:18:02;;;;;;;;;;;18.90;67.50;;;;;;4396514;32;19976;-82
2022/10/11 14:20:45;;;;;;;;;;;18.90;67.60;;;;;;4415732;32;20037;-79
2022/10/11 14:23:12;;;;;;;;;;;18.90;67.70;;;;;;4428894;32;19982;-80
2022/10/11 14:25:37;;;;;;;;;;;18.90;67.70;;;;;;4414088;32;19979;-79